Pireps - S7


Get Adobe Flash player

РУС

ENG

 
  Pireps - S7
 

Рейс SBIS7 1089

  • Выполнял: Andrey Mamontov
  • Аэропорт отправления: Pulkovo Airport (ULLI)
  • Аэропорт назначения: Domodedovo Airport (UUDD)
  • Тип ВС: A320-214 (VQ-BET)
  • Время полёта: 01.15
  • Дата полёта: 12.09.2017
  • Маршрут: OKUDI B160 BD SW BESTA RUGEL GEKLA
  • Статус: Одобрен

Детали полёта
Gross Revenue:
(137 load / $ 800.00 per unit
$ 109, 600.00
Fuel Cost:
(3301 fuel used @ 5.1 / unit)
$ 16, 835.10


Дополнительная информация о полёте:

Лог

Aircraft Used in flight is Airbus A320 Siberia VP-BDT
18:07 Boarding
18:07 Navigation Lights ON at 90 AGL
18:07 Brakes are On
18:12 Beacon Lights ON at 90 AGL
18:14 Engine 1 Started
18:14 Engine 2 Started
18:14 Engine 2 Stoped
18:14 Engine 2 Started
18:15 Spoilers Armed
18:16Flaps 2 Selected at 90ft and 0kts
18:16 Taxi Lights ON at 90 AGL
18:16 Brakes are Released
18:20 Landing Lights ON at 90 AGL
18:20 Strobe Lights ON at 90 AGL
18:22 You Took off @ 146 Knots and Flaps at Position 2
Departure Weather
ULLI 121100Z 19005MPS 160V220 9999 BKN020 23/19 Q1001 R88/090060 NOSIGrn
18:22 Paused
18:22 Landing Gear Up @ 159 Knots and 160 Feet
18:22 Taxi Lights OFF at 180 AGL
18:22 Unpaused
18:22 Spoilers Disarmed
18:22Flaps Retracted at 1170ft and 189kts
18:24 Landing Lights OFF at 8990 AGL
18:32 You exceeded maximum bank angle
18:36 TOC Reached
19:10 Below 10000 feet you are not allowed to go over 250 knots
19:10 Landing Lights ON at 9570 AGL
19:13Flaps 1 Selected at 5290ft and 196kts
19:16Flaps 3 Selected at 3210ft and 165kts
19:17 Landing Gear Down @ 161 Knots and 3160 Feet
19:18 Spoilers Armed
19:18 Taxi Lights ON at 3190 AGL
19:18Flaps 4 Selected at 2990ft and 143kts
19:18Flaps 5 Selected at 2940ft and 142kts
19:21 You Landed @ 134 Knots and with -200 Vertical Speed
Arrival Weather
UUDD 121030Z 20006MPS CAVOK 25/13 Q1013 R88/010095 NOSIGrn
19:21 Spoilers Disarmed
19:21 Paused
19:22Flaps Retracted at 600ft and 32kts
19:23 Landing Lights OFF at 600 AGL
19:23 Strobe Lights OFF at 600 AGL
19:31 Unpaused
19:31 Paused
19:32 Unpaused
19:32 Brakes are On
19:32 Engine 2 Stoped
19:32 Engine 1 Stoped
Pirep logged with S7 Tracking 1.0.0.13



Общая оценка полета : 100%




Route Map



 
 
   
 
Новости

26.04.2018 - Полеты в X-PLANE

Наш клиент S7 Pad поддерживает полеты как в MFSX, Prepar3d V4, так и в X-PLANE 10 и 11 версиях!
На нашем сайте в разреде загруки есть плагин XPUIPIC for X-plane.
Приятных Вам полетов и мягких посадок!

   
 
Авторизация






Регистрация

Восстановить пароль?

Мы в соц. сетях

      



   
  TeamSpeak3 ts.va-s7.ru


   
 

   
 



   
 


Яндекс.Метрика

www.va-s7.ru 2011-2017
Все права защищены.



Минуточку внимания!
Мы не имеем отношения к торговым маркам "S7" и "Globus" и их представителям.
Эмблемы на сайте являются собственностью соответствующих компаний.

аэронавигационная метеорологическая и любая другая информация с данного ресурса ни в коем случае не должна использоваться для реальных полетов